createdAt,value
2023-04-17T00:01:21.052Z,7.82
2023-04-17T00:03:24.079Z,7.79
2023-04-17T00:05:27.924Z,7.78
2023-04-17T00:07:34.337Z,7.73
2023-04-17T00:09:37.062Z,7.83
2023-04-17T00:11:40.185Z,7.69
2023-04-17T00:13:44.017Z,7.65
2023-04-17T00:15:46.698Z,7.76
2023-04-17T00:17:49.483Z,7.74
2023-04-17T00:19:52.318Z,7.74
2023-04-17T00:21:55.048Z,7.82
2023-04-17T00:23:59.453Z,7.73
2023-04-17T00:26:02.626Z,7.63
2023-04-17T00:28:05.915Z,7.57
2023-04-17T00:30:09.841Z,7.63
2023-04-17T00:32:12.549Z,7.65
2023-04-17T00:34:15.244Z,7.75
2023-04-17T00:36:17.972Z,7.52
2023-04-17T00:38:20.690Z,7.54
2023-04-17T00:40:24.658Z,7.50
2023-04-17T00:42:27.505Z,7.59
2023-04-17T00:44:30.702Z,7.58
2023-04-17T00:46:33.709Z,7.51
2023-04-17T00:48:38.431Z,7.61
2023-04-17T00:50:41.647Z,7.55
2023-04-17T00:52:46.057Z,7.67
2023-04-17T00:54:48.702Z,7.62
2023-04-17T00:56:55.178Z,7.67
2023-04-17T00:58:58.742Z,7.61
2023-04-17T01:01:01.466Z,7.65
2023-04-17T01:03:07.328Z,7.48
2023-04-17T01:05:10.671Z,7.65
2023-04-17T01:07:13.366Z,7.50
2023-04-17T01:09:19.009Z,7.58
2023-04-17T01:11:22.095Z,7.53
2023-04-17T01:13:26.340Z,7.56
2023-04-17T01:15:29.379Z,7.69
2023-04-17T01:17:32.195Z,7.67
2023-04-17T01:19:34.989Z,7.59
2023-04-17T01:21:37.692Z,7.48
2023-04-17T01:23:45.417Z,7.64
2023-04-17T01:25:51.184Z,7.54
2023-04-17T01:27:53.965Z,7.65
2023-04-17T01:29:56.575Z,7.49
2023-04-17T01:31:59.190Z,7.58
2023-04-17T01:34:04.923Z,7.52
2023-04-17T01:36:07.993Z,7.58
2023-04-17T01:38:10.633Z,7.40
2023-04-17T01:40:13.884Z,7.47
2023-04-17T01:42:17.921Z,7.62
2023-04-17T01:44:20.706Z,7.59
2023-04-17T01:46:23.462Z,7.64
2023-04-17T01:48:26.125Z,7.71
2023-04-17T01:50:28.786Z,7.41
2023-04-17T01:52:31.623Z,7.42
2023-04-17T01:54:34.294Z,7.50
2023-04-17T01:56:36.890Z,7.62
2023-04-17T01:58:41.010Z,7.58
2023-04-17T02:00:43.708Z,7.66
2023-04-17T02:02:46.485Z,7.51
2023-04-17T02:04:49.260Z,7.56
2023-04-17T02:06:52.253Z,7.43
2023-04-17T02:08:54.918Z,7.42
2023-04-17T02:10:57.602Z,7.53
2023-04-17T02:13:00.290Z,7.63
2023-04-17T02:15:04.346Z,7.54
2023-04-17T02:17:07.186Z,7.65
2023-04-17T02:19:10.065Z,7.45
2023-04-17T02:21:12.959Z,7.48
2023-04-17T02:23:15.690Z,7.37
2023-04-17T02:25:18.481Z,7.47
2023-04-17T02:27:21.262Z,7.64
2023-04-17T02:29:23.896Z,7.49
2023-04-17T02:31:27.936Z,7.60
2023-04-17T02:33:30.673Z,7.61
2023-04-17T02:35:34.115Z,7.58
2023-04-17T02:37:37.181Z,7.44
2023-04-17T02:39:39.798Z,7.51
2023-04-17T02:41:42.512Z,7.52
2023-04-17T02:43:45.230Z,7.43
2023-04-17T02:45:47.973Z,7.44
2023-04-17T02:47:52.064Z,7.48
2023-04-17T02:49:56.174Z,7.44
2023-04-17T02:51:58.976Z,7.46
2023-04-17T02:54:01.669Z,7.57
2023-04-17T02:56:05.098Z,7.48
2023-04-17T02:58:07.795Z,7.56
2023-04-17T03:00:13.938Z,7.48
2023-04-17T03:02:21.814Z,7.49
2023-04-17T03:04:27.631Z,7.51
2023-04-17T03:06:30.239Z,7.36
2023-04-17T03:08:35.457Z,7.59
2023-04-17T03:10:38.101Z,7.48
2023-04-17T03:12:40.810Z,7.46
2023-04-17T03:14:44.700Z,7.56
2023-04-17T03:16:47.371Z,7.50
2023-04-17T03:18:50.041Z,7.39
2023-04-17T03:20:54.143Z,7.46
2023-04-17T03:22:56.832Z,7.47
2023-04-17T03:24:59.481Z,7.51
2023-04-17T03:27:02.949Z,7.45
2023-04-17T03:29:06.043Z,7.41
2023-04-17T03:31:08.710Z,7.45
2023-04-17T03:33:11.423Z,7.49
2023-04-17T03:35:14.269Z,7.35
2023-04-17T03:37:18.315Z,7.35
2023-04-17T03:39:21.476Z,7.32
2023-04-17T03:41:24.291Z,7.43
2023-04-17T03:43:27.074Z,7.37
2023-04-17T03:45:29.690Z,7.30
2023-04-17T03:47:32.403Z,7.36
2023-04-17T03:49:35.055Z,7.53
2023-04-17T03:51:37.728Z,7.39
2023-04-17T03:53:41.852Z,7.42
2023-04-17T03:55:44.571Z,7.38
2023-04-17T03:57:48.521Z,7.41
2023-04-17T03:59:51.313Z,7.30
2023-04-17T04:01:54.413Z,7.47
2023-04-17T04:03:57.341Z,7.26
2023-04-17T04:06:00.061Z,7.30
2023-04-17T04:08:02.745Z,7.38
2023-04-17T04:10:08.036Z,7.29
2023-04-17T04:12:11.345Z,7.34
2023-04-17T04:14:13.918Z,7.40
2023-04-17T04:16:16.754Z,7.22
2023-04-17T04:18:19.568Z,7.28
2023-04-17T04:20:23.046Z,7.43
2023-04-17T04:22:25.750Z,7.36
2023-04-17T04:24:28.605Z,7.36
2023-04-17T04:26:36.348Z,7.34
2023-04-17T04:28:42.590Z,7.22
2023-04-17T04:30:50.749Z,7.38
2023-04-17T04:32:55.908Z,7.30
2023-04-17T04:35:01.946Z,7.29
2023-04-17T04:37:04.768Z,7.38
2023-04-17T04:39:07.411Z,7.28
2023-04-17T04:41:10.573Z,7.21
2023-04-17T04:43:14.572Z,7.32
2023-04-17T04:45:18.661Z,7.40
2023-04-17T04:47:22.736Z,7.33
2023-04-17T04:49:25.660Z,7.36
2023-04-17T04:51:28.333Z,7.50
2023-04-17T04:53:31.529Z,7.39
2023-04-17T04:55:34.317Z,7.22
2023-04-17T04:57:37.342Z,7.31
2023-04-17T04:59:41.310Z,7.26
2023-04-17T05:01:44.689Z,7.22
2023-04-17T05:03:47.999Z,7.34
2023-04-17T05:05:51.377Z,7.33
2023-04-17T05:07:54.965Z,7.31
2023-04-17T05:09:57.675Z,7.21
2023-04-17T05:12:00.386Z,7.25
2023-04-17T05:14:03.004Z,7.34
2023-04-17T05:16:07.564Z,7.29
2023-04-17T05:18:10.433Z,7.19
2023-04-17T05:20:14.944Z,7.25
2023-04-17T05:22:17.563Z,7.26
2023-04-17T05:24:20.414Z,7.22
2023-04-17T05:26:23.367Z,7.17
2023-04-17T05:28:27.281Z,7.25
2023-04-17T05:30:30.293Z,7.28
2023-04-17T05:32:35.055Z,7.22
2023-04-17T05:34:37.813Z,7.17
2023-04-17T05:36:40.494Z,7.29
2023-04-17T05:38:45.942Z,7.28
2023-04-17T05:40:48.895Z,7.22
2023-04-17T05:42:51.773Z,7.31
2023-04-17T05:44:54.454Z,7.29
2023-04-17T05:47:00.052Z,7.17
2023-04-17T05:49:04.092Z,7.21
2023-04-17T05:51:07.002Z,7.34
2023-04-17T05:53:09.779Z,7.32
2023-04-17T05:55:12.486Z,7.44
2023-04-17T05:57:15.255Z,7.42
2023-04-17T05:59:17.949Z,7.30
2023-04-17T06:01:22.354Z,7.18
2023-04-17T06:03:25.858Z,7.19
2023-04-17T06:05:30.357Z,7.16
2023-04-17T06:07:33.848Z,7.34
2023-04-17T06:09:37.346Z,7.33
2023-04-17T06:11:40.104Z,7.49
2023-04-17T06:13:42.920Z,7.44
2023-04-17T06:15:45.813Z,7.21
2023-04-17T06:17:48.486Z,7.25
2023-04-17T06:19:51.151Z,7.28
2023-04-17T06:21:55.228Z,7.30
2023-04-17T06:23:57.882Z,7.23
2023-04-17T06:26:00.574Z,7.16
2023-04-17T06:28:03.756Z,7.19
2023-04-17T06:30:07.684Z,7.26
2023-04-17T06:32:10.667Z,7.29
2023-04-17T06:34:13.365Z,7.15
2023-04-17T06:36:16.294Z,7.28
2023-04-17T06:38:20.318Z,7.34
2023-04-17T06:40:22.990Z,7.22
2023-04-17T06:42:25.926Z,7.44
2023-04-17T06:44:28.674Z,7.47
2023-04-17T06:46:31.440Z,7.36
2023-04-17T06:48:34.147Z,7.26
2023-04-17T06:50:36.836Z,7.27
2023-04-17T06:52:39.524Z,7.31
2023-04-17T06:54:43.676Z,7.29
2023-04-17T06:56:46.384Z,7.33
2023-04-17T06:58:49.087Z,7.32
2023-04-17T07:00:51.753Z,7.24
2023-04-17T07:02:54.532Z,7.23
2023-04-17T07:04:57.470Z,7.39
2023-04-17T07:07:00.533Z,7.32
2023-04-17T07:09:03.381Z,7.34
2023-04-17T07:11:07.548Z,7.40
2023-04-17T07:13:10.246Z,7.37
2023-04-17T07:15:13.195Z,7.51
2023-04-17T07:17:15.952Z,7.33
2023-04-17T07:19:18.566Z,7.37
2023-04-17T07:21:21.174Z,7.36
2023-04-17T07:23:24.148Z,7.44
2023-04-17T07:25:27.050Z,7.54
2023-04-17T07:27:31.087Z,7.68
2023-04-17T07:29:33.986Z,7.58
2023-04-17T07:31:36.962Z,7.45
2023-04-17T07:33:40.597Z,7.47
2023-04-17T07:35:44.541Z,7.47
2023-04-17T07:37:47.213Z,7.49
2023-04-17T07:39:50.370Z,7.54
2023-04-17T07:41:53.048Z,7.42
2023-04-17T07:43:58.955Z,7.42
2023-04-17T07:46:02.011Z,7.44
2023-04-17T07:48:05.202Z,7.47
2023-04-17T07:50:09.056Z,7.55
2023-04-17T07:52:11.720Z,7.52
2023-04-17T07:54:14.430Z,7.54
2023-04-17T07:56:17.493Z,7.47
2023-04-17T07:58:20.303Z,7.54
2023-04-17T08:00:24.648Z,7.59
2023-04-17T08:02:27.575Z,7.68
2023-04-17T08:04:30.900Z,7.52
2023-04-17T08:06:33.776Z,7.61
2023-04-17T08:08:36.429Z,7.62
2023-04-17T08:10:39.129Z,7.58
2023-04-17T08:12:41.805Z,7.60
2023-04-17T08:14:44.618Z,7.54
2023-04-17T08:16:48.720Z,7.51
2023-04-17T08:18:51.492Z,7.60
2023-04-17T08:20:54.215Z,7.76
2023-04-17T08:22:57.322Z,7.61
2023-04-17T08:25:00.026Z,7.63
2023-04-17T08:27:03.507Z,7.58
2023-04-17T08:29:06.217Z,7.72
2023-04-17T08:31:10.393Z,7.61
2023-04-17T08:33:16.883Z,7.64
2023-04-17T08:35:20.228Z,7.62
2023-04-17T08:37:22.959Z,7.68
2023-04-17T08:39:27.159Z,7.66
2023-04-17T08:41:37.484Z,7.81
2023-04-17T08:43:42.314Z,7.74
2023-04-17T08:45:50.102Z,7.80
2023-04-17T08:47:53.010Z,7.69
2023-04-17T08:49:58.607Z,7.70
2023-04-17T08:52:03.085Z,7.73
2023-04-17T08:54:05.938Z,7.75
2023-04-17T08:56:09.343Z,7.70
2023-04-17T08:58:13.281Z,7.72
2023-04-17T09:00:25.393Z,7.83
2023-04-17T09:02:28.384Z,8.02
2023-04-17T09:04:39.316Z,7.95
2023-04-17T09:06:54.316Z,7.95
2023-04-17T09:08:58.927Z,8.08
2023-04-17T09:11:01.613Z,8.01
2023-04-17T09:13:04.869Z,8.16
2023-04-17T09:15:16.930Z,8.07
2023-04-17T09:17:21.341Z,8.25
2023-04-17T09:19:24.011Z,8.27
2023-04-17T09:21:28.955Z,8.14
2023-04-17T09:23:46.917Z,8.36
2023-04-17T09:26:07.454Z,8.24
2023-04-17T09:28:12.745Z,8.41
2023-04-17T09:30:15.701Z,8.42
2023-04-17T09:32:18.461Z,8.46
2023-04-17T09:34:21.889Z,8.54
2023-04-17T09:36:24.773Z,8.33
2023-04-17T09:38:40.040Z,8.50
2023-04-17T09:40:45.248Z,8.44
2023-04-17T09:42:58.697Z,8.73
2023-04-17T09:45:19.139Z,8.84
2023-04-17T09:47:23.597Z,8.93
2023-04-17T09:49:35.372Z,9.10
2023-04-17T09:51:38.734Z,9.19
2023-04-17T09:53:42.847Z,9.24
2023-04-17T09:55:46.052Z,9.15
2023-04-17T09:57:50.522Z,9.00
2023-04-17T09:59:57.396Z,8.84
2023-04-17T10:02:01.920Z,8.69
2023-04-17T10:04:06.825Z,9.03
2023-04-17T10:06:10.143Z,8.93
2023-04-17T10:08:12.872Z,8.87
2023-04-17T10:10:23.760Z,8.85
2023-04-17T10:12:26.701Z,8.64
2023-04-17T10:14:33.296Z,8.64
2023-04-17T10:16:37.068Z,8.71
2023-04-17T10:18:40.472Z,8.65
2023-04-17T10:20:44.956Z,8.79
2023-04-17T10:22:54.542Z,8.51
2023-04-17T10:25:19.785Z,8.57
2023-04-17T10:27:46.375Z,8.51
2023-04-17T10:29:59.306Z,8.51
2023-04-17T10:32:24.369Z,8.62
2023-04-17T10:34:44.845Z,8.67
2023-04-17T10:36:50.801Z,8.59
2023-04-17T10:38:53.426Z,8.59
2023-04-17T10:40:56.164Z,8.51
2023-04-17T10:43:13.399Z,8.46
2023-04-17T10:45:19.959Z,8.55
2023-04-17T10:47:23.160Z,8.46
2023-04-17T10:49:25.993Z,8.60
2023-04-17T10:51:42.687Z,8.56
2023-04-17T10:53:45.941Z,8.48
2023-04-17T10:55:51.365Z,8.69
2023-04-17T10:57:55.978Z,8.77
2023-04-17T11:00:13.719Z,8.72
2023-04-17T11:02:17.318Z,8.64
2023-04-17T11:04:21.808Z,8.84
2023-04-17T11:06:28.786Z,8.96
2023-04-17T11:08:31.618Z,9.17
2023-04-17T11:10:37.104Z,9.31
2023-04-17T11:12:39.826Z,9.40
2023-04-17T11:14:43.218Z,9.55
2023-04-17T11:16:49.036Z,9.90
2023-04-17T11:18:52.260Z,9.75
2023-04-17T11:20:54.964Z,9.57
2023-04-17T11:22:58.190Z,9.80
2023-04-17T11:25:00.994Z,9.89
2023-04-17T11:27:04.744Z,9.70
2023-04-17T11:29:14.970Z,10.01
2023-04-17T11:31:19.853Z,10.23
2023-04-17T11:33:25.199Z,10.20
2023-04-17T11:35:32.644Z,9.97
2023-04-17T11:37:35.431Z,10.12
2023-04-17T11:39:38.226Z,9.98
2023-04-17T11:41:42.517Z,10.13
2023-04-17T11:43:45.393Z,10.21
2023-04-17T11:45:52.576Z,10.61
2023-04-17T11:47:55.292Z,10.74
2023-04-17T11:49:59.480Z,11.45
2023-04-17T11:52:04.052Z,11.23
2023-04-17T11:54:06.799Z,11.21
2023-04-17T11:56:17.122Z,10.89
2023-04-17T11:58:19.739Z,11.24
2023-04-17T12:00:27.444Z,11.38
2023-04-17T12:02:34.416Z,11.33
2023-04-17T12:04:39.424Z,11.67
2023-04-17T12:06:43.871Z,12.02
2023-04-17T12:08:50.136Z,11.36
2023-04-17T12:10:52.881Z,11.86
2023-04-17T12:12:56.537Z,12.47
2023-04-17T12:15:00.970Z,11.96
2023-04-17T12:17:03.624Z,11.95
2023-04-17T12:19:07.979Z,11.53
2023-04-17T12:21:10.796Z,11.52
2023-04-17T12:23:14.791Z,10.94
2023-04-17T12:25:17.437Z,10.57
2023-04-17T12:27:20.085Z,10.27
2023-04-17T12:29:36.243Z,10.27
2023-04-17T12:31:45.976Z,10.00
2023-04-17T12:33:48.635Z,9.96
2023-04-17T12:35:51.415Z,10.05
2023-04-17T12:37:54.065Z,9.86
2023-04-17T12:39:59.612Z,9.92
2023-04-17T12:42:02.244Z,9.78
2023-04-17T12:44:05.106Z,9.84
2023-04-17T12:46:08.080Z,9.63
2023-04-17T12:48:11.016Z,9.63
2023-04-17T12:50:14.112Z,9.53
2023-04-17T12:52:16.810Z,9.59
2023-04-17T12:54:19.824Z,9.48
2023-04-17T12:56:24.126Z,9.52
2023-04-17T12:58:26.885Z,9.66
2023-04-17T13:00:29.605Z,9.65
2023-04-17T13:02:32.664Z,9.67
2023-04-17T13:04:35.762Z,9.73
2023-04-17T13:06:38.667Z,9.73
2023-04-17T13:08:41.383Z,9.83
2023-04-17T13:10:44.206Z,9.84
2023-04-17T13:12:48.500Z,9.73
2023-04-17T13:14:51.306Z,10.09
2023-04-17T13:16:54.087Z,10.28
2023-04-17T13:18:56.820Z,10.12
2023-04-17T13:20:59.593Z,10.13
2023-04-17T13:23:02.449Z,10.40
2023-04-17T13:25:05.888Z,10.41
2023-04-17T13:27:09.811Z,10.33
2023-04-17T13:29:15.620Z,10.41
2023-04-17T13:31:19.990Z,10.41
2023-04-17T13:33:22.661Z,10.66
2023-04-17T13:35:25.350Z,10.66
2023-04-17T13:37:28.145Z,10.54
2023-04-17T13:39:31.025Z,10.24
2023-04-17T13:41:33.726Z,10.32
2023-04-17T13:43:36.369Z,10.23
2023-04-17T13:45:40.460Z,10.28
2023-04-17T13:47:44.624Z,10.13
2023-04-17T13:49:47.389Z,10.20
2023-04-17T13:51:50.238Z,10.07
2023-04-17T13:53:52.921Z,10.24
2023-04-17T13:55:55.652Z,10.24
2023-04-17T13:57:58.594Z,10.29
2023-04-17T14:00:01.275Z,10.02
2023-04-17T14:02:05.562Z,10.00
2023-04-17T14:04:08.513Z,10.05
2023-04-17T14:06:11.464Z,10.00
2023-04-17T14:08:14.252Z,9.95
2023-04-17T14:10:16.875Z,9.82
2023-04-17T14:12:21.670Z,9.92
2023-04-17T14:14:24.545Z,9.75
2023-04-17T14:16:27.614Z,9.66
2023-04-17T14:18:32.324Z,9.75
2023-04-17T14:20:34.967Z,9.96
2023-04-17T14:22:37.758Z,9.95
2023-04-17T14:24:40.472Z,10.00
2023-04-17T14:26:43.174Z,10.18
2023-04-17T14:28:45.842Z,10.17
2023-04-17T14:30:48.535Z,10.14
2023-04-17T14:32:53.366Z,10.39
2023-04-17T14:34:57.524Z,10.21
2023-04-17T14:37:00.190Z,10.33
2023-04-17T14:39:02.933Z,10.35
2023-04-17T14:41:05.842Z,10.43
2023-04-17T14:43:08.611Z,10.32
2023-04-17T14:45:12.535Z,10.50
2023-04-17T14:47:15.355Z,10.53
2023-04-17T14:49:18.046Z,10.44
2023-04-17T14:51:22.325Z,10.61
2023-04-17T14:53:25.045Z,10.66
2023-04-17T14:55:27.980Z,10.78
2023-04-17T14:57:30.709Z,10.66
2023-04-17T14:59:33.560Z,10.75
2023-04-17T15:01:36.548Z,10.90
2023-04-17T15:03:39.650Z,10.74
2023-04-17T15:05:42.547Z,10.93
2023-04-17T15:07:46.541Z,11.04
2023-04-17T15:09:49.238Z,11.03
2023-04-17T15:11:52.032Z,11.00
2023-04-17T15:13:54.775Z,11.02
2023-04-17T15:15:57.498Z,11.03
2023-04-17T15:18:00.327Z,10.76
2023-04-17T15:20:04.101Z,10.84
2023-04-17T15:22:06.774Z,10.68
2023-04-17T15:24:10.925Z,10.67
2023-04-17T15:26:14.082Z,10.48
2023-04-17T15:28:16.769Z,10.74
2023-04-17T15:30:19.502Z,10.74
2023-04-17T15:32:22.242Z,10.52
2023-04-17T15:34:25.053Z,10.78
2023-04-17T15:36:31.272Z,11.08
2023-04-17T15:38:34.038Z,10.51
2023-04-17T15:40:38.132Z,10.54
2023-04-17T15:42:40.877Z,10.66
2023-04-17T15:44:43.486Z,10.64
2023-04-17T15:46:46.361Z,10.61
2023-04-17T15:49:01.233Z,10.53
2023-04-17T15:51:10.684Z,10.77
2023-04-17T15:53:13.463Z,10.60
2023-04-17T15:55:16.536Z,10.41
2023-04-17T15:57:20.549Z,10.30
2023-04-17T15:59:23.314Z,10.46
2023-04-17T16:01:26.443Z,10.32
2023-04-17T16:03:29.404Z,10.34
2023-04-17T16:05:32.225Z,10.36
2023-04-17T16:07:34.827Z,10.34
2023-04-17T16:09:37.534Z,10.37
2023-04-17T16:11:40.204Z,10.08
2023-04-17T16:13:44.256Z,10.07
2023-04-17T16:15:46.927Z,10.14
2023-04-17T16:17:49.681Z,10.07
2023-04-17T16:19:52.411Z,10.19
2023-04-17T16:21:56.636Z,10.11
2023-04-17T16:23:59.433Z,9.96
2023-04-17T16:26:02.053Z,10.17
2023-04-17T16:28:04.736Z,10.11
2023-04-17T16:30:10.690Z,10.03
2023-04-17T16:32:14.258Z,10.09
2023-04-17T16:34:17.217Z,10.07
2023-04-17T16:36:20.016Z,10.09
2023-04-17T16:38:22.673Z,10.17
2023-04-17T16:40:26.559Z,10.02
2023-04-17T16:42:29.159Z,9.97
2023-04-17T16:44:31.840Z,9.91
2023-04-17T16:46:52.109Z,9.91
2023-04-17T16:48:58.845Z,9.86
2023-04-17T16:51:05.797Z,9.77
2023-04-17T16:53:09.335Z,9.86
2023-04-17T16:55:12.077Z,9.75
2023-04-17T16:57:14.760Z,9.80
2023-04-17T16:59:17.561Z,9.81
2023-04-17T17:01:20.261Z,9.68
2023-04-17T17:03:24.420Z,9.91
2023-04-17T17:05:27.122Z,9.71
2023-04-17T17:07:29.802Z,9.74
2023-04-17T17:09:32.576Z,9.66
2023-04-17T17:11:35.297Z,9.60
2023-04-17T17:13:38.005Z,9.59
2023-04-17T17:15:40.679Z,9.65
2023-04-17T17:17:43.459Z,9.57
2023-04-17T17:19:47.559Z,9.57
2023-04-17T17:21:50.808Z,9.62
2023-04-17T17:23:53.468Z,9.57
2023-04-17T17:25:56.089Z,9.63
2023-04-17T17:27:58.998Z,9.47
2023-04-17T17:30:01.691Z,9.46
2023-04-17T17:32:04.888Z,9.43
2023-04-17T17:34:22.646Z,9.38
2023-04-17T17:36:31.313Z,9.53
2023-04-17T17:38:34.012Z,9.40
2023-04-17T17:40:36.744Z,9.25
2023-04-17T17:42:39.349Z,9.31
2023-04-17T17:44:41.978Z,9.24
2023-04-17T17:46:44.768Z,9.21
2023-04-17T17:48:47.630Z,9.24
2023-04-17T17:50:54.225Z,9.14
2023-04-17T17:52:59.007Z,9.22
2023-04-17T17:55:01.984Z,9.22
2023-04-17T17:57:05.330Z,9.25
2023-04-17T17:59:08.062Z,9.19
2023-04-17T18:01:11.050Z,9.27
2023-04-17T18:03:15.735Z,9.25
2023-04-17T18:05:19.023Z,9.24
2023-04-17T18:07:21.740Z,9.23
2023-04-17T18:09:25.822Z,9.24
2023-04-17T18:11:28.645Z,9.21
2023-04-17T18:13:31.288Z,9.14
2023-04-17T18:15:34.055Z,9.15
2023-04-17T18:17:36.824Z,9.07
2023-04-17T18:19:41.620Z,9.13
2023-04-17T18:21:47.245Z,9.19
2023-04-17T18:23:50.353Z,9.01
2023-04-17T18:26:02.088Z,9.07
2023-04-17T18:28:04.859Z,9.08
2023-04-17T18:30:09.735Z,8.94
2023-04-17T18:32:12.476Z,9.00
2023-04-17T18:34:15.379Z,8.95
2023-04-17T18:36:18.204Z,8.98
2023-04-17T18:38:20.853Z,8.97
2023-04-17T18:40:23.502Z,8.89
2023-04-17T18:42:27.432Z,8.90
2023-04-17T18:44:30.060Z,8.95
2023-04-17T18:46:32.763Z,8.83
2023-04-17T18:48:35.529Z,8.81
2023-04-17T18:50:38.393Z,8.78
2023-04-17T18:52:44.043Z,8.81
2023-04-17T18:54:49.584Z,8.79
2023-04-17T18:56:52.228Z,8.75
2023-04-17T18:58:56.218Z,8.81
2023-04-17T19:00:59.016Z,8.71
2023-04-17T19:03:01.799Z,8.68
2023-04-17T19:05:05.697Z,8.79
2023-04-17T19:07:08.414Z,8.61
2023-04-17T19:09:11.549Z,8.66
2023-04-17T19:11:14.248Z,8.56
2023-04-17T19:13:16.908Z,8.57
2023-04-17T19:15:21.381Z,8.65
2023-04-17T19:17:25.249Z,8.54
2023-04-17T19:19:28.057Z,8.54
2023-04-17T19:21:31.711Z,8.56
2023-04-17T19:23:34.422Z,8.52
2023-04-17T19:25:38.394Z,8.42
2023-04-17T19:27:41.037Z,8.43
2023-04-17T19:29:43.822Z,8.44
2023-04-17T19:31:47.913Z,8.40
2023-04-17T19:33:50.564Z,8.41
2023-04-17T19:35:53.330Z,8.41
2023-04-17T19:37:55.978Z,8.46
2023-04-17T19:39:58.683Z,8.34
2023-04-17T19:42:02.253Z,8.22
2023-04-17T19:44:05.124Z,8.39
2023-04-17T19:46:08.652Z,8.36
2023-04-17T19:48:12.832Z,8.17
2023-04-17T19:50:15.673Z,8.19
2023-04-17T19:52:18.479Z,8.14
2023-04-17T19:54:21.196Z,8.11
2023-04-17T19:56:24.112Z,8.10
2023-04-17T19:58:26.885Z,8.08
2023-04-17T20:00:29.548Z,8.24
2023-04-17T20:02:32.464Z,8.00
2023-04-17T20:04:36.587Z,8.02
2023-04-17T20:06:39.578Z,8.00
2023-04-17T20:08:42.316Z,8.09
2023-04-17T20:10:44.972Z,7.93
2023-04-17T20:12:47.653Z,7.97
2023-04-17T20:14:52.530Z,7.93
2023-04-17T20:16:56.182Z,7.95
2023-04-17T20:18:58.884Z,7.83
2023-04-17T20:21:02.962Z,7.87
2023-04-17T20:23:06.097Z,7.90
2023-04-17T20:25:09.698Z,7.86
2023-04-17T20:27:12.319Z,7.83
2023-04-17T20:29:15.209Z,7.79
2023-04-17T20:31:18.278Z,7.84
2023-04-17T20:33:20.936Z,7.73
2023-04-17T20:35:24.694Z,7.66
2023-04-17T20:37:28.822Z,7.69
2023-04-17T20:39:32.052Z,7.71
2023-04-17T20:41:34.802Z,7.66
2023-04-17T20:43:37.512Z,7.60
2023-04-17T20:45:40.498Z,7.68
2023-04-17T20:47:55.975Z,7.65
2023-04-17T20:49:59.713Z,7.71
2023-04-17T20:52:02.983Z,7.59
2023-04-17T20:54:07.094Z,7.65
2023-04-17T20:56:09.809Z,7.58
2023-04-17T20:58:12.488Z,7.56
2023-04-17T21:00:15.824Z,7.57
2023-04-17T21:02:18.711Z,7.52
2023-04-17T21:04:21.865Z,7.52
2023-04-17T21:06:24.587Z,7.55
2023-04-17T21:08:27.464Z,7.50
2023-04-17T21:10:31.497Z,7.49
2023-04-17T21:12:35.191Z,7.51
2023-04-17T21:14:38.068Z,7.52
2023-04-17T21:16:41.631Z,7.50
2023-04-17T21:18:44.307Z,7.55
2023-04-17T21:20:46.974Z,7.49
2023-04-17T21:22:49.778Z,7.47
2023-04-17T21:24:52.410Z,7.45
2023-04-17T21:26:58.594Z,7.48
2023-04-17T21:29:01.222Z,7.43
2023-04-17T21:31:08.345Z,7.40
2023-04-17T21:33:11.136Z,7.41
2023-04-17T21:35:13.758Z,7.54
2023-04-17T21:37:16.344Z,7.44
2023-04-17T21:39:19.125Z,7.40
2023-04-17T21:41:22.023Z,7.44
2023-04-17T21:43:26.046Z,7.44
2023-04-17T21:45:28.774Z,7.39
2023-04-17T21:47:31.421Z,7.50
2023-04-17T21:49:34.172Z,7.47
2023-04-17T21:51:36.802Z,7.38
2023-04-17T21:53:39.510Z,7.45
2023-04-17T21:55:42.347Z,7.44
2023-04-17T21:57:45.934Z,7.35
2023-04-17T21:59:49.937Z,7.34
2023-04-17T22:01:52.596Z,7.30
2023-04-17T22:03:55.583Z,7.36
2023-04-17T22:05:58.737Z,7.33
2023-04-17T22:08:02.171Z,7.32
2023-04-17T22:10:05.422Z,7.36
2023-04-17T22:12:12.409Z,7.30
2023-04-17T22:14:16.898Z,7.33
2023-04-17T22:16:21.049Z,7.29
2023-04-17T22:18:23.745Z,7.36
2023-04-17T22:20:26.623Z,7.40
2023-04-17T22:22:29.252Z,7.30
2023-04-17T22:24:31.849Z,7.22
2023-04-17T22:26:34.588Z,7.25
2023-04-17T22:28:37.378Z,7.26
2023-04-17T22:30:40.076Z,7.31
2023-04-17T22:32:44.282Z,7.18
2023-04-17T22:34:48.643Z,7.18
2023-04-17T22:36:51.389Z,7.22
2023-04-17T22:38:54.184Z,7.16
2023-04-17T22:40:56.823Z,7.11
2023-04-17T22:42:59.485Z,7.10
2023-04-17T22:45:02.275Z,7.17
2023-04-17T22:47:05.070Z,7.20
2023-04-17T22:49:09.626Z,7.13
2023-04-17T22:51:12.531Z,7.27
2023-04-17T22:53:15.223Z,7.18
2023-04-17T22:55:18.094Z,7.15
2023-04-17T22:57:20.993Z,7.19
2023-04-17T22:59:23.880Z,7.16
2023-04-17T23:01:26.760Z,7.21
2023-04-17T23:03:29.924Z,7.19
2023-04-17T23:05:34.049Z,7.25
2023-04-17T23:07:37.040Z,7.26
2023-04-17T23:09:39.678Z,7.20
2023-04-17T23:11:42.474Z,7.21
2023-04-17T23:13:45.401Z,7.18
2023-04-17T23:15:48.236Z,7.19
2023-04-17T23:17:50.990Z,7.20
2023-04-17T23:19:54.405Z,7.26
2023-04-17T23:21:59.466Z,7.28
2023-04-17T23:24:02.488Z,7.31
2023-04-17T23:26:05.288Z,7.22
2023-04-17T23:28:07.950Z,7.24
2023-04-17T23:30:11.464Z,7.27
2023-04-17T23:32:14.143Z,7.23
2023-04-17T23:34:16.882Z,7.20
2023-04-17T23:36:19.630Z,7.28
2023-04-17T23:38:23.676Z,7.34
2023-04-17T23:40:28.045Z,7.23
2023-04-17T23:42:30.822Z,7.47
2023-04-17T23:44:33.536Z,7.35
2023-04-17T23:46:36.344Z,7.38
2023-04-17T23:48:39.113Z,7.31
2023-04-17T23:50:42.942Z,7.35
2023-04-17T23:52:46.194Z,7.33
2023-04-17T23:54:50.181Z,7.32
2023-04-17T23:56:53.537Z,7.27
2023-04-17T23:58:56.308Z,7.45
